Time;durP1;ratioP1;P1;durP2;ratioP2;P2;SDS_P1;SDS_P2;PMS_P1;PMS_P2;Temp;Humidity;BMP_temperature;BMP_pressure;BME280_temperature;BME280_humidity;BME280_pressure;Samples;Min_cycle;Max_cycle;Signal;HPM_P1;HPM_P2
2022/06/24 00:02:09;;;;;;;10.02;6.07;;;18.00;89.30;;;;;;5098441;28;20037;-64
2022/06/24 00:04:38;;;;;;;11.40;6.63;;;18.00;87.30;;;;;;5097595;28;20503;-65
2022/06/24 00:07:15;;;;;;;11.95;7.18;;;18.00;88.90;;;;;;5098121;28;20032;-66
2022/06/24 00:09:42;;;;;;;13.00;7.38;;;18.00;88.10;;;;;;5098578;28;20469;-70
2022/06/24 00:12:14;;;;;;;13.45;7.07;;;18.00;88.90;;;;;;5100189;28;20032;-67
2022/06/24 00:14:42;;;;;;;15.57;7.20;;;18.00;88.80;;;;;;5100046;28;20028;-65
2022/06/24 00:17:09;;;;;;;11.77;7.40;;;18.10;87.70;;;;;;5099637;28;20579;-65
2022/06/24 00:19:53;;;;;;;9.13;6.85;;;18.10;89.00;;;;;;5100462;28;20028;-65
2022/06/24 00:22:19;;;;;;;12.43;7.53;;;18.10;88.90;;;;;;5100195;28;20024;-67
2022/06/24 00:24:45;;;;;;;12.43;7.60;;;18.20;88.80;;;;;;5098566;28;20454;-66
2022/06/24 00:27:19;;;;;;;11.60;7.63;;;18.20;88.80;;;;;;5100555;28;20024;-65
2022/06/24 00:29:46;;;;;;;12.30;7.53;;;18.20;87.80;;;;;;5100246;28;20051;-66
2022/06/24 00:32:12;;;;;;;11.05;8.63;;;18.30;87.80;;;;;;5099670;28;20016;-65
2022/06/24 00:34:39;;;;;;;14.80;9.73;;;18.30;88.70;;;;;;5100238;28;20031;-65
2022/06/24 00:37:24;;;;;;;16.02;9.82;;;18.30;89.50;;;;;;5100264;28;20022;-67
2022/06/24 00:39:52;;;;;;;13.60;10.70;;;18.40;88.30;;;;;;5100162;28;20035;-65
2022/06/24 00:42:19;;;;;;;13.68;9.93;;;18.40;89.50;;;;;;5099632;28;20081;-65
2022/06/24 00:45:04;;;;;;;17.15;11.48;;;18.40;89.50;;;;;;5099875;28;20020;-68
2022/06/24 00:47:31;;;;;;;17.27;10.35;;;18.30;90.10;;;;;;5100084;28;20032;-65
2022/06/24 00:50:00;;;;;;;16.80;10.35;;;18.40;89.40;;;;;;5099931;28;20024;-66
2022/06/24 00:52:26;;;;;;;13.60;9.73;;;18.40;88.40;;;;;;5099552;28;20502;-64
2022/06/24 00:54:52;;;;;;;18.08;10.55;;;18.40;87.30;;;;;;5099656;28;20044;-66
2022/06/24 00:57:18;;;;;;;14.85;10.20;;;18.40;89.30;;;;;;5098769;28;20024;-65
2022/06/24 00:59:47;;;;;;;16.75;9.43;;;18.30;90.00;;;;;;5099597;28;20032;-65
2022/06/24 01:02:16;;;;;;;14.10;9.43;;;18.30;88.90;;;;;;5099187;28;20024;-64
2022/06/24 01:04:42;;;;;;;12.55;9.30;;;18.30;88.90;;;;;;5099566;28;20490;-65
2022/06/24 01:07:08;;;;;;;15.30;9.82;;;18.30;87.80;;;;;;5099656;28;20059;-65
2022/06/24 01:09:34;;;;;;;13.68;9.55;;;18.30;88.60;;;;;;5099043;28;20024;-65
2022/06/24 01:12:00;;;;;;;10.93;8.05;;;18.20;89.00;;;;;;5099715;28;20016;-65
2022/06/24 01:14:26;;;;;;;13.70;8.50;;;18.20;89.20;;;;;;5087521;28;20062;-66
2022/06/24 01:16:51;;;;;;;12.95;8.38;;;18.20;87.80;;;;;;5095098;28;20024;-65
2022/06/24 01:19:17;;;;;;;14.25;9.30;;;18.20;87.50;;;;;;5099381;28;20024;-66
2022/06/24 01:21:48;;;;;;;14.23;9.00;;;18.20;87.10;;;;;;5098959;28;20472;-65
2022/06/24 01:24:20;;;;;;;13.55;8.73;;;18.10;88.00;;;;;;5099276;28;20039;-71
2022/06/24 01:26:55;;;;;;;12.50;8.52;;;18.10;88.00;;;;;;5099057;28;20391;-66
2022/06/24 01:29:21;;;;;;;13.25;8.70;;;18.10;87.20;;;;;;5098996;28;20036;-65
2022/06/24 01:31:49;;;;;;;13.23;9.07;;;18.10;87.90;;;;;;5098660;28;20028;-65
2022/06/24 01:34:16;;;;;;;13.65;9.43;;;18.10;87.20;;;;;;5098885;28;20020;-65
2022/06/24 01:36:42;;;;;;;14.55;10.05;;;18.10;87.20;;;;;;5099037;28;20024;-67
2022/06/24 01:39:08;;;;;;;14.07;9.63;;;18.10;87.00;;;;;;5098455;28;20085;-65
2022/06/24 01:41:34;;;;;;;13.32;8.85;;;18.10;88.40;;;;;;5099050;28;20039;-64
2022/06/24 01:44:01;;;;;;;14.60;8.77;;;18.00;86.80;;;;;;5098669;28;20032;-69
2022/06/24 01:46:27;;;;;;;13.82;8.50;;;18.10;87.10;;;;;;5098754;28;20027;-70
2022/06/24 01:48:53;;;;;;;16.38;9.98;;;18.10;87.50;;;;;;5098247;28;20028;-74
2022/06/24 01:51:21;;;;;;;15.40;9.45;;;18.10;88.00;;;;;;5098279;28;20035;-65
2022/06/24 01:53:47;;;;;;;15.18;10.43;;;18.10;87.60;;;;;;5098575;28;20042;-65
2022/06/24 01:56:12;;;;;;;13.05;9.80;;;18.10;88.50;;;;;;5098656;28;20076;-64
2022/06/24 01:58:38;;;;;;;13.55;9.73;;;18.10;88.60;;;;;;5098210;28;20047;-65
2022/06/24 02:01:04;;;;;;;14.55;9.77;;;18.10;89.00;;;;;;5098235;28;20051;-69
2022/06/24 02:03:32;;;;;;;13.32;10.05;;;18.20;88.90;;;;;;5098194;28;20028;-65
2022/06/24 02:06:03;;;;;;;17.77;11.18;;;18.20;87.90;;;;;;5098327;28;20028;-65
2022/06/24 02:08:30;;;;;;;13.57;11.63;;;18.10;89.30;;;;;;5097558;28;20103;-65
2022/06/24 02:13:41;;;;;;;15.98;11.73;;;18.00;88.10;;;;;;5098082;28;20077;-68
2022/06/24 02:16:07;;;;;;;14.35;11.18;;;18.00;87.30;;;;;;5091663;28;20020;-65
2022/06/24 02:18:33;;;;;;;14.23;9.63;;;17.90;87.20;;;;;;5078187;28;20075;-65
2022/06/24 02:21:00;;;;;;;15.70;10.57;;;17.80;86.30;;;;;;5078295;28;20020;-64
2022/06/24 02:23:26;;;;;;;11.88;9.35;;;17.70;87.30;;;;;;5077653;28;20032;-67
2022/06/24 02:25:53;;;;;;;11.63;8.57;;;17.70;86.50;;;;;;5080502;28;20901;-65
2022/06/24 02:28:19;;;;;;;11.25;7.65;;;17.70;86.20;;;;;;5097667;28;20026;-66
2022/06/24 02:30:47;;;;;;;11.05;7.68;;;17.60;86.10;;;;;;5098070;28;20028;-64
2022/06/24 02:33:14;;;;;;;9.73;7.10;;;17.60;85.90;;;;;;5098138;28;20016;-65
2022/06/24 02:35:40;;;;;;;11.80;7.82;;;17.70;85.00;;;;;;5097814;28;20024;-64
2022/06/24 02:38:06;;;;;;;12.77;8.75;;;17.70;85.40;;;;;;5098061;28;20468;-65
2022/06/24 02:40:45;;;;;;;14.40;9.20;;;17.70;85.70;;;;;;5098081;28;20052;-68
2022/06/24 02:43:13;;;;;;;13.07;9.77;;;17.70;86.30;;;;;;5098037;28;20031;-65
2022/06/24 02:45:45;;;;;;;14.75;10.65;;;17.70;86.00;;;;;;5097730;28;20032;-65
2022/06/24 02:48:12;;;;;;;15.68;12.05;;;17.80;86.70;;;;;;5097961;28;20020;-65
2022/06/24 02:50:40;;;;;;;16.23;10.88;;;17.70;86.20;;;;;;5097859;28;20499;-65
2022/06/24 02:53:06;;;;;;;15.20;12.10;;;17.70;86.90;;;;;;5097852;28;20099;-65
2022/06/24 02:55:31;;;;;;;17.67;11.98;;;17.70;88.10;;;;;;5097603;28;20381;-65
2022/06/24 02:57:57;;;;;;;20.63;11.32;;;17.70;88.40;;;;;;5097697;28;20051;-65
2022/06/24 03:00:23;;;;;;;13.25;9.68;;;17.80;87.40;;;;;;5097634;28;20471;-65
2022/06/24 03:02:49;;;;;;;16.00;10.10;;;17.70;88.00;;;;;;5097705;28;20031;-65
2022/06/24 03:05:14;;;;;;;17.27;9.57;;;17.70;88.40;;;;;;5097577;28;20024;-65
2022/06/24 03:07:40;;;;;;;15.75;10.15;;;17.70;88.30;;;;;;5097424;28;20031;-65
2022/06/24 03:10:07;;;;;;;13.45;8.98;;;17.70;88.40;;;;;;5097400;28;20020;-65
2022/06/24 03:12:32;;;;;;;11.13;8.25;;;17.70;88.20;;;;;;5098085;28;20025;-70
2022/06/24 03:14:58;;;;;;;12.95;7.88;;;17.70;88.00;;;;;;5097547;28;20032;-65
2022/06/24 03:17:24;;;;;;;12.63;8.00;;;17.70;87.30;;;;;;5097301;28;20541;-65
2022/06/24 03:19:50;;;;;;;11.38;8.07;;;17.70;86.40;;;;;;5097728;28;20023;-66
2022/06/24 03:22:15;;;;;;;11.00;7.40;;;17.70;86.00;;;;;;5101749;28;20103;-65
2022/06/24 03:24:41;;;;;;;9.35;6.90;;;17.70;86.70;;;;;;5101832;28;20032;-65
2022/06/24 03:27:07;;;;;;;10.88;7.30;;;17.70;86.60;;;;;;5101156;28;20028;-66
2022/06/24 03:29:33;;;;;;;11.95;7.13;;;17.70;85.70;;;;;;5101548;28;20036;-65
2022/06/24 03:31:59;;;;;;;13.55;7.30;;;17.60;85.50;;;;;;5101368;28;20020;-66
2022/06/24 03:34:24;;;;;;;12.18;7.63;;;17.60;85.40;;;;;;5101284;28;20035;-65
2022/06/24 03:36:50;;;;;;;9.65;6.75;;;17.60;85.20;;;;;;5100980;28;20020;-66
2022/06/24 03:39:16;;;;;;;14.18;7.93;;;17.60;85.40;;;;;;5101006;28;20028;-65
2022/06/24 03:41:42;;;;;;;13.10;8.60;;;17.60;86.20;;;;;;5101326;28;20028;-66
2022/06/24 03:44:08;;;;;;;13.60;8.50;;;17.50;87.10;;;;;;5100934;28;20047;-65
2022/06/24 03:46:34;;;;;;;10.73;8.02;;;17.50;87.00;;;;;;5101188;28;20388;-73
2022/06/24 03:48:59;;;;;;;13.65;8.25;;;17.50;86.80;;;;;;5100982;28;20028;-68
2022/06/24 03:51:25;;;;;;;11.30;8.05;;;17.40;87.40;;;;;;5100475;28;20102;-64
2022/06/24 03:53:51;;;;;;;11.77;7.82;;;17.40;87.70;;;;;;5100818;28;20031;-65
2022/06/24 03:56:17;;;;;;;13.30;7.90;;;17.30;87.30;;;;;;5101149;28;20048;-65
2022/06/24 03:58:42;;;;;;;11.23;7.45;;;17.30;86.50;;;;;;5100784;28;20055;-65
2022/06/24 04:01:08;;;;;;;15.15;7.28;;;17.20;86.80;;;;;;5100324;28;20070;-65
2022/06/24 04:03:34;;;;;;;11.15;7.45;;;17.20;86.80;;;;;;5100263;28;20036;-66
2022/06/24 04:06:00;;;;;;;12.95;7.85;;;17.20;88.20;;;;;;5100848;28;20030;-65
2022/06/24 04:08:26;;;;;;;13.52;6.70;;;17.20;87.40;;;;;;5100850;28;20031;-70
2022/06/24 04:10:52;;;;;;;13.15;7.30;;;17.20;88.10;;;;;;5100223;28;20056;-65
2022/06/24 04:13:18;;;;;;;10.70;7.15;;;17.20;88.80;;;;;;5100526;28;20392;-64
2022/06/24 04:15:45;;;;;;;15.18;7.90;;;17.10;89.20;;;;;;5100259;28;20032;-64
2022/06/24 04:18:11;;;;;;;12.20;6.95;;;17.10;90.00;;;;;;5100646;28;20024;-65
2022/06/24 04:20:37;;;;;;;13.57;7.10;;;17.00;88.60;;;;;;5100123;28;20390;-65
2022/06/24 04:23:03;;;;;;;14.02;7.45;;;17.10;88.40;;;;;;5100331;28;20066;-64
2022/06/24 04:25:28;;;;;;;13.10;8.07;;;17.00;88.60;;;;;;5100475;28;20016;-65
2022/06/24 04:27:54;;;;;;;9.70;6.60;;;17.00;89.60;;;;;;5100206;28;20028;-70
2022/06/24 04:30:20;;;;;;;11.05;7.22;;;17.00;89.00;;;;;;5098393;28;20063;-65
2022/06/24 04:32:46;;;;;;;11.80;6.75;;;17.00;89.80;;;;;;5099661;28;20056;-65
2022/06/24 04:35:11;;;;;;;12.30;7.57;;;17.10;88.40;;;;;;5100091;28;20039;-65
2022/06/24 04:37:39;;;;;;;11.55;7.35;;;17.10;88.40;;;;;;5100311;28;20055;-66
2022/06/24 04:40:09;;;;;;;12.27;7.72;;;17.10;88.70;;;;;;5099648;28;20024;-65
2022/06/24 04:42:36;;;;;;;9.80;7.85;;;17.10;86.90;;;;;;5085593;28;20032;-65
2022/06/24 04:45:02;;;;;;;13.50;7.50;;;17.10;87.30;;;;;;5079679;28;20794;-65
2022/06/24 04:47:28;;;;;;;14.35;7.65;;;17.10;87.30;;;;;;5085410;28;20032;-65
2022/06/24 04:49:54;;;;;;;12.35;8.38;;;17.20;87.00;;;;;;5083530;28;20035;-65
2022/06/24 04:52:19;;;;;;;14.35;8.07;;;17.20;88.50;;;;;;5098776;28;20071;-65
2022/06/24 04:54:45;;;;;;;12.75;8.07;;;17.30;87.80;;;;;;5098125;28;20023;-65
2022/06/24 04:57:11;;;;;;;10.38;7.15;;;17.30;87.80;;;;;;5098282;28;20028;-65
2022/06/24 04:59:37;;;;;;;13.75;7.63;;;17.30;88.40;;;;;;5098409;28;20035;-65
2022/06/24 05:02:03;;;;;;;14.70;8.55;;;17.30;88.60;;;;;;5099240;28;20519;-65
2022/06/24 05:04:29;;;;;;;14.32;8.43;;;17.40;88.70;;;;;;5099395;28;20441;-64
2022/06/24 05:06:55;;;;;;;12.13;8.48;;;17.40;87.70;;;;;;5099291;28;20016;-65
2022/06/24 05:09:21;;;;;;;13.52;8.60;;;17.40;87.60;;;;;;5099089;28;20046;-65
2022/06/24 05:11:48;;;;;;;10.15;8.02;;;17.40;87.20;;;;;;5098255;28;20027;-64
2022/06/24 05:14:14;;;;;;;12.20;8.73;;;17.40;87.10;;;;;;5098742;28;20106;-65
2022/06/24 05:16:41;;;;;;;12.63;8.35;;;17.40;87.00;;;;;;5098311;28;20111;-65
2022/06/24 05:19:08;;;;;;;12.05;8.15;;;17.40;87.30;;;;;;5098845;28;20024;-65
2022/06/24 05:21:33;;;;;;;13.10;8.32;;;17.50;87.10;;;;;;5098301;28;20028;-65
2022/06/24 05:23:59;;;;;;;12.57;7.90;;;17.50;86.90;;;;;;5098996;28;20026;-64
2022/06/24 05:26:25;;;;;;;12.48;7.68;;;17.50;86.60;;;;;;5098595;28;20063;-65
2022/06/24 05:28:51;;;;;;;13.93;7.60;;;17.50;86.20;;;;;;5098800;28;20024;-65
2022/06/24 05:31:17;;;;;;;10.90;7.65;;;17.40;86.10;;;;;;5098097;28;20476;-65
2022/06/24 05:33:43;;;;;;;11.32;7.68;;;17.50;86.50;;;;;;5098686;28;20039;-65
2022/06/24 05:36:09;;;;;;;11.27;7.40;;;17.50;86.70;;;;;;5098486;28;20098;-64
2022/06/24 05:38:35;;;;;;;9.85;6.95;;;17.50;86.90;;;;;;5098601;28;20024;-65
2022/06/24 05:41:03;;;;;;;11.48;6.80;;;17.70;86.70;;;;;;5097872;28;20099;-65
2022/06/24 05:43:29;;;;;;;11.73;7.47;;;17.70;86.90;;;;;;5097666;28;20035;-64
2022/06/24 05:45:55;;;;;;;14.50;7.15;;;17.80;87.50;;;;;;5098519;28;20035;-65
2022/06/24 05:48:20;;;;;;;11.88;7.38;;;17.80;87.10;;;;;;5098506;28;20151;-65
2022/06/24 05:50:46;;;;;;;18.52;8.75;;;17.90;87.50;;;;;;5097793;28;20035;-64
2022/06/24 05:56:00;;;;;;;14.18;8.18;;;17.20;93.10;;;;;;5098315;28;20046;-62
2022/06/24 05:58:27;;;;;;;13.00;7.78;;;17.10;93.60;;;;;;5097985;28;20037;-62
2022/06/24 06:00:56;;;;;;;9.25;6.82;;;16.90;93.30;;;;;;5097694;28;20034;-63
2022/06/24 06:03:26;;;;;;;13.32;7.03;;;16.80;92.60;;;;;;5098092;28;20392;-63
2022/06/24 06:05:52;;;;;;;14.98;7.28;;;16.70;94.00;;;;;;5097565;28;20100;-63
2022/06/24 06:08:18;;;;;;;14.20;7.60;;;16.60;94.10;;;;;;5098020;28;20028;-63
2022/06/24 06:10:44;;;;;;;12.15;6.72;;;16.50;93.80;;;;;;5097153;28;20111;-63
2022/06/24 06:13:14;;;;;;;11.63;6.30;;;16.50;94.10;;;;;;5097615;28;20092;-63
2022/06/24 06:15:41;;;;;;;12.38;6.65;;;16.50;93.40;;;;;;5097237;28;20444;-63
2022/06/24 06:18:07;;;;;;;10.88;6.10;;;16.40;93.40;;;;;;5096820;28;20028;-63
2022/06/24 06:20:33;;;;;;;9.60;6.15;;;16.40;93.90;;;;;;5097677;28;20196;-63
2022/06/24 06:22:59;;;;;;;9.63;5.90;;;16.50;93.20;;;;;;5097523;28;20471;-63
2022/06/24 06:25:25;;;;;;;10.93;6.63;;;16.50;93.10;;;;;;5097626;28;20075;-63
2022/06/24 06:27:50;;;;;;;10.70;6.05;;;16.50;93.30;;;;;;5097611;28;20513;-63
2022/06/24 06:30:17;;;;;;;9.70;6.00;;;16.50;93.10;;;;;;5097716;28;20035;-63
2022/06/24 06:32:42;;;;;;;10.30;5.93;;;16.50;93.20;;;;;;5096987;28;20027;-63
2022/06/24 06:35:09;;;;;;;10.98;5.80;;;16.60;93.10;;;;;;5097557;28;20024;-63
2022/06/24 06:37:34;;;;;;;11.07;6.82;;;16.60;93.50;;;;;;5097770;28;20126;-65
2022/06/24 06:40:00;;;;;;;11.73;6.55;;;16.60;93.10;;;;;;5097796;28;20472;-64
2022/06/24 06:42:27;;;;;;;8.95;6.55;;;16.70;92.00;;;;;;5096964;28;20524;-63
2022/06/24 06:44:53;;;;;;;11.50;6.55;;;16.60;93.20;;;;;;5097364;28;20084;-63
2022/06/24 06:47:19;;;;;;;11.32;6.90;;;16.60;93.00;;;;;;5097594;28;20027;-63
2022/06/24 06:49:45;;;;;;;11.43;6.68;;;16.60;92.30;;;;;;5096673;28;20103;-63
2022/06/24 06:52:10;;;;;;;10.85;5.97;;;16.70;92.00;;;;;;5097056;28;20025;-64
2022/06/24 06:54:37;;;;;;;10.35;6.00;;;16.70;92.40;;;;;;5096631;28;20460;-64
2022/06/24 06:57:03;;;;;;;11.02;6.78;;;16.70;92.30;;;;;;5080254;28;20020;-63
2022/06/24 06:59:29;;;;;;;10.60;6.47;;;16.70;92.00;;;;;;5081224;28;20077;-63
2022/06/24 07:01:55;;;;;;;10.80;6.55;;;16.70;92.30;;;;;;5081207;28;20029;-64
2022/06/24 07:04:21;;;;;;;9.48;6.43;;;16.80;91.60;;;;;;5081275;28;20025;-63
2022/06/24 07:06:49;;;;;;;10.02;7.07;;;16.70;91.50;;;;;;5081034;28;20033;-63
2022/06/24 07:09:15;;;;;;;11.07;6.40;;;16.70;91.50;;;;;;5080821;28;20028;-64
2022/06/24 07:11:40;;;;;;;13.70;6.10;;;16.70;91.70;;;;;;5080923;28;20046;-64
2022/06/24 07:14:06;;;;;;;10.45;6.10;;;16.80;91.60;;;;;;5081188;28;20032;-64
2022/06/24 07:16:32;;;;;;;12.32;7.20;;;16.80;91.20;;;;;;5081010;28;20013;-64
2022/06/24 07:18:58;;;;;;;14.98;7.40;;;16.80;92.00;;;;;;5080963;28;20385;-63
2022/06/24 07:21:24;;;;;;;10.50;5.97;;;16.70;92.70;;;;;;5080839;28;20036;-64
2022/06/24 07:23:49;;;;;;;8.35;5.22;;;16.60;92.00;;;;;;5081470;28;20025;-64
2022/06/24 07:26:16;;;;;;;8.52;5.15;;;16.60;91.40;;;;;;5080990;28;20028;-64
2022/06/24 07:28:42;;;;;;;7.45;4.78;;;16.50;90.60;;;;;;5080842;28;20029;-64
2022/06/24 07:31:16;;;;;;;10.77;4.90;;;16.40;90.40;;;;;;5080731;28;20070;-64
2022/06/24 07:33:42;;;;;;;13.50;5.00;;;16.30;90.50;;;;;;5080602;28;20048;-64
2022/06/24 07:36:08;;;;;;;8.07;4.72;;;16.30;90.70;;;;;;5080478;28;20465;-64
2022/06/24 07:38:34;;;;;;;10.38;4.75;;;16.30;90.40;;;;;;5080422;28;20090;-64
2022/06/24 07:41:00;;;;;;;11.02;5.32;;;16.30;90.70;;;;;;5080780;28;20490;-64
2022/06/24 07:43:25;;;;;;;8.93;5.35;;;16.40;90.40;;;;;;5080561;28;20048;-64
2022/06/24 07:45:53;;;;;;;9.10;5.32;;;16.40;90.60;;;;;;5080587;28;20029;-64
2022/06/24 07:48:19;;;;;;;10.82;4.93;;;16.40;90.70;;;;;;5080318;28;20036;-64
2022/06/24 07:50:45;;;;;;;10.65;5.25;;;16.40;90.70;;;;;;5080487;28;20028;-64
2022/06/24 07:53:11;;;;;;;8.15;5.80;;;16.50;90.20;;;;;;5080147;28;20021;-64
2022/06/24 07:58:21;;;;;;;9.93;5.50;;;16.60;90.90;;;;;;5080179;28;20102;-64
2022/06/24 08:00:48;;;;;;;8.75;5.22;;;16.60;90.40;;;;;;5080019;28;20028;-64
2022/06/24 08:03:14;;;;;;;9.18;5.50;;;16.60;91.10;;;;;;5079743;28;20032;-64
2022/06/24 08:05:40;;;;;;;10.70;5.65;;;16.60;91.50;;;;;;5079971;28;20030;-64
2022/06/24 08:08:06;;;;;;;8.30;4.80;;;16.70;90.90;;;;;;5079318;28;20115;-64
2022/06/24 08:10:32;;;;;;;7.60;4.82;;;16.70;90.80;;;;;;5079740;28;20104;-64
2022/06/24 08:12:58;;;;;;;11.05;5.45;;;16.80;89.90;;;;;;5079593;28;20024;-64
2022/06/24 08:15:24;;;;;;;6.68;4.90;;;16.80;90.20;;;;;;5079794;28;20471;-64
2022/06/24 08:17:50;;;;;;;8.43;5.13;;;16.80;89.90;;;;;;5079626;28;20024;-64
2022/06/24 08:20:16;;;;;;;10.00;5.10;;;16.80;89.70;;;;;;5079718;28;20078;-64
2022/06/24 08:22:41;;;;;;;9.18;4.75;;;16.80;89.10;;;;;;5079819;28;20361;-65
2022/06/24 08:25:08;;;;;;;7.78;4.50;;;16.90;88.60;;;;;;5084460;28;20024;-65
2022/06/24 08:27:34;;;;;;;10.18;4.95;;;17.00;89.60;;;;;;5099274;28;20162;-65
2022/06/24 08:30:00;;;;;;;10.10;5.20;;;17.00;89.60;;;;;;5100196;28;20024;-64
2022/06/24 08:32:26;;;;;;;11.73;4.78;;;17.10;89.40;;;;;;5099832;28;20028;-63
2022/06/24 08:34:51;;;;;;;10.13;5.32;;;17.10;90.00;;;;;;5099306;28;20026;-63
2022/06/24 08:37:17;;;;;;;10.18;4.57;;;17.20;90.10;;;;;;5098458;28;20031;-62
2022/06/24 08:39:43;;;;;;;8.20;3.58;;;17.30;88.70;;;;;;5098782;28;20020;-62
2022/06/24 08:42:12;;;;;;;6.90;3.78;;;17.40;86.10;;;;;;5099199;28;20027;-64
2022/06/24 08:44:39;;;;;;;9.02;4.05;;;17.40;83.60;;;;;;5097061;28;20046;-64
2022/06/24 08:47:05;;;;;;;9.65;4.30;;;17.50;83.80;;;;;;5092674;28;20447;-64
2022/06/24 08:49:34;;;;;;;7.95;3.70;;;17.60;83.50;;;;;;5098635;28;20028;-64
2022/06/24 08:52:03;;;;;;;10.82;3.70;;;17.70;83.90;;;;;;5098641;28;20081;-64
2022/06/24 08:54:30;;;;;;;8.57;3.50;;;17.90;82.50;;;;;;5097678;28;20065;-64
2022/06/24 08:56:58;;;;;;;7.47;3.05;;;18.00;79.00;;;;;;5097622;28;20024;-64
2022/06/24 08:59:26;;;;;;;6.53;3.00;;;18.10;79.60;;;;;;5096980;28;20067;-63
2022/06/24 09:01:52;;;;;;;6.63;2.90;;;18.10;76.50;;;;;;5097277;28;20024;-63
2022/06/24 09:04:21;;;;;;;8.18;3.28;;;18.10;75.50;;;;;;5097261;28;20046;-64
2022/06/24 09:06:47;;;;;;;10.45;3.28;;;18.10;77.80;;;;;;5096798;28;20353;-64
2022/06/24 09:09:25;;;;;;;6.85;3.08;;;18.10;76.90;;;;;;5098311;28;20165;-63
2022/06/24 09:11:57;;;;;;;4.97;2.72;;;18.20;78.30;;;;;;5098529;28;20060;-64
2022/06/24 09:14:42;;;;;;;6.70;2.78;;;18.30;76.40;;;;;;5099584;28;20497;-63
2022/06/24 09:17:09;;;;;;;8.93;3.22;;;18.50;78.60;;;;;;5099229;28;20073;-64
2022/06/24 09:19:37;;;;;;;7.50;3.17;;;18.60;76.30;;;;;;5098314;28;20483;-64
2022/06/24 09:22:03;;;;;;;8.07;3.10;;;18.70;75.30;;;;;;5099382;28;20091;-64
2022/06/24 09:24:45;;;;;;;6.32;2.88;;;18.80;76.50;;;;;;5099385;28;20020;-64
2022/06/24 09:27:11;;;;;;;8.10;3.10;;;18.90;78.00;;;;;;5099019;28;20480;-64
2022/06/24 09:29:45;;;;;;;5.50;2.67;;;18.90;74.80;;;;;;5099308;28;20119;-64
2022/06/24 09:32:11;;;;;;;7.93;3.25;;;18.80;74.50;;;;;;5099437;28;20032;-63
2022/06/24 09:34:36;;;;;;;7.00;2.75;;;18.70;76.90;;;;;;5099108;28;20024;-63
2022/06/24 09:37:02;;;;;;;5.80;3.00;;;18.70;76.50;;;;;;5096884;28;20024;-63
2022/06/24 09:39:32;;;;;;;6.35;2.83;;;18.60;76.70;;;;;;5099532;28;20048;-63
2022/06/24 09:41:57;;;;;;;6.57;3.08;;;18.50;76.10;;;;;;5098845;28;20072;-63
2022/06/24 09:44:26;;;;;;;7.88;3.30;;;18.40;75.50;;;;;;5098012;28;20102;-63
2022/06/24 09:47:05;;;;;;;9.90;3.38;;;18.20;76.60;;;;;;5098618;28;20032;-63
2022/06/24 09:49:31;;;;;;;7.43;3.15;;;18.10;78.90;;;;;;5099222;28;20097;-63
2022/06/24 09:51:58;;;;;;;10.73;3.42;;;18.10;78.40;;;;;;5098783;28;20377;-63
2022/06/24 09:54:25;;;;;;;6.32;3.17;;;18.30;78.10;;;;;;5098838;28;20016;-63
2022/06/24 09:56:52;;;;;;;7.53;3.40;;;18.30;77.10;;;;;;5097800;28;20020;-63
2022/06/24 10:02:04;;;;;;;8.57;3.13;;;18.50;78.60;;;;;;5097914;28;20069;-63
2022/06/24 10:04:31;;;;;;;10.57;3.38;;;18.50;77.80;;;;;;5096724;28;20026;-63
2022/06/24 10:06:57;;;;;;;11.18;3.08;;;18.60;77.80;;;;;;5098212;28;20024;-63
2022/06/24 10:09:28;;;;;;;10.45;2.90;;;18.70;79.60;;;;;;5097810;28;20031;-63
2022/06/24 10:11:57;;;;;;;7.75;2.60;;;18.80;79.50;;;;;;5097828;28;20039;-63
2022/06/24 10:14:29;;;;;;;8.07;2.45;;;18.80;76.20;;;;;;5096867;28;20020;-63
2022/06/24 10:16:56;;;;;;;8.70;3.03;;;18.80;77.00;;;;;;5097791;28;20052;-63
2022/06/24 10:19:24;;;;;;;5.22;2.20;;;18.70;77.80;;;;;;5097717;28;20487;-63
2022/06/24 10:21:50;;;;;;;6.35;2.15;;;18.70;76.90;;;;;;5097530;28;20448;-63
2022/06/24 10:24:17;;;;;;;5.82;1.83;;;18.60;75.40;;;;;;5097629;28;20016;-63
2022/06/24 10:26:55;;;;;;;5.75;2.00;;;18.60;74.20;;;;;;5097749;28;20039;-63
2022/06/24 10:29:27;;;;;;;4.40;1.90;;;18.70;76.20;;;;;;5097738;28;20027;-63
2022/06/24 10:31:54;;;;;;;10.15;2.67;;;18.80;74.80;;;;;;5097711;28;20063;-64
2022/06/24 10:34:22;;;;;;;4.03;1.67;;;19.20;76.50;;;;;;5097733;28;20763;-63
2022/06/24 10:37:04;;;;;;;6.47;2.00;;;19.70;74.90;;;;;;5097738;28;20028;-64
2022/06/24 10:39:34;;;;;;;5.10;1.65;;;20.10;74.20;;;;;;5097738;28;20356;-63
2022/06/24 10:42:05;;;;;;;5.93;1.90;;;20.60;70.00;;;;;;5097595;28;20030;-63
2022/06/24 10:44:35;;;;;;;6.68;1.77;;;20.90;68.90;;;;;;5097510;28;20024;-64
2022/06/24 10:47:10;;;;;;;5.60;1.63;;;21.10;67.10;;;;;;5097383;28;20024;-64
2022/06/24 10:49:51;;;;;;;6.68;1.55;;;21.60;70.90;;;;;;5097156;28;20020;-64
2022/06/24 10:52:36;;;;;;;4.38;1.65;;;21.90;66.40;;;;;;5097330;28;20031;-63
2022/06/24 10:55:17;;;;;;;5.30;1.80;;;21.80;65.80;;;;;;5097231;28;20024;-64
2022/06/24 10:57:48;;;;;;;2.95;1.23;;;21.90;67.50;;;;;;5097387;28;20047;-64
2022/06/24 11:00:16;;;;;;;5.53;1.60;;;22.00;67.50;;;;;;5097964;28;20040;-64
2022/06/24 11:02:47;;;;;;;6.47;1.60;;;22.40;68.40;;;;;;5097911;28;20395;-64
2022/06/24 11:05:24;;;;;;;5.13;1.40;;;22.50;66.00;;;;;;5097883;28;20027;-64
2022/06/24 11:07:51;;;;;;;4.70;0.98;;;22.20;65.60;;;;;;5097860;28;20024;-64
2022/06/24 11:10:22;;;;;;;4.22;0.93;;;22.20;65.10;;;;;;5097768;28;20447;-64
2022/06/24 11:12:53;;;;;;;6.80;1.17;;;22.10;65.10;;;;;;5097583;28;20024;-64
2022/06/24 11:15:19;;;;;;;6.30;1.42;;;22.20;67.30;;;;;;5097768;28;20020;-64
2022/06/24 11:17:45;;;;;;;2.47;0.90;;;22.00;67.70;;;;;;5097482;28;20028;-64
2022/06/24 11:20:12;;;;;;;4.05;0.93;;;21.70;66.40;;;;;;5097548;28;20100;-64
2022/06/24 11:22:45;;;;;;;3.55;1.40;;;21.40;67.60;;;;;;5097993;28;20111;-64
2022/06/24 11:25:13;;;;;;;7.00;1.30;;;21.30;68.70;;;;;;5097872;28;20024;-64
2022/06/24 11:27:39;;;;;;;3.25;1.23;;;21.00;69.50;;;;;;5097460;28;20031;-64
2022/06/24 11:30:07;;;;;;;4.75;1.48;;;20.90;69.30;;;;;;5097650;28;20106;-63
2022/06/24 11:33:08;;;;;;;4.47;1.92;;;20.50;69.70;;;;;;5097602;28;20028;-63
2022/06/24 11:35:34;;;;;;;5.53;1.42;;;20.20;70.20;;;;;;5075255;28;20075;-63
2022/06/24 11:38:06;;;;;;;5.38;1.40;;;20.10;72.30;;;;;;5092510;28;20032;-63
2022/06/24 11:40:32;;;;;;;9.60;1.50;;;20.00;73.80;;;;;;5097536;28;20025;-63
2022/06/24 11:43:25;;;;;;;5.20;1.67;;;19.90;74.40;;;;;;5100598;28;20016;-63
2022/06/24 11:45:52;;;;;;;6.95;1.50;;;19.80;76.00;;;;;;5099932;28;20040;-63
2022/06/24 11:48:21;;;;;;;4.47;1.13;;;19.90;77.90;;;;;;5101086;28;20020;-64
2022/06/24 11:50:47;;;;;;;5.80;1.08;;;20.30;75.40;;;;;;5100840;28;20110;-64
2022/06/24 11:53:13;;;;;;;6.25;1.20;;;20.60;74.00;;;;;;5100991;28;20043;-63
2022/06/24 11:55:40;;;;;;;4.05;1.00;;;20.80;72.70;;;;;;5101315;28;20020;-63
2022/06/24 11:58:08;;;;;;;4.28;1.20;;;20.80;72.00;;;;;;5100978;28;20068;-63
2022/06/24 12:00:36;;;;;;;7.25;1.23;;;20.70;72.40;;;;;;5100843;28;20388;-63
2022/06/24 12:03:05;;;;;;;6.53;1.13;;;20.40;72.20;;;;;;5100851;28;20031;-64
2022/06/24 12:05:32;;;;;;;6.43;1.23;;;20.20;74.60;;;;;;5100940;28;20103;-63
2022/06/24 12:08:00;;;;;;;7.50;1.30;;;20.30;74.00;;;;;;5100592;28;20026;-63
2022/06/24 12:10:27;;;;;;;3.40;1.23;;;20.20;75.00;;;;;;5100715;28;20024;-63
2022/06/24 12:12:59;;;;;;;7.22;1.20;;;20.20;73.90;;;;;;5100767;28;20016;-64
2022/06/24 12:15:31;;;;;;;6.47;1.30;;;20.10;74.40;;;;;;5100752;28;20020;-63
2022/06/24 12:17:57;;;;;;;5.57;1.30;;;20.00;75.10;;;;;;5100596;28;20052;-63
2022/06/24 12:20:25;;;;;;;8.32;1.33;;;19.80;75.70;;;;;;5100464;28;20020;-63
2022/06/24 12:23:17;;;;;;;9.27;1.83;;;19.70;75.30;;;;;;5100543;28;20127;-63
2022/06/24 12:25:45;;;;;;;6.35;1.02;;;19.60;76.20;;;;;;5100512;28;20024;-63
2022/06/24 12:28:20;;;;;;;6.82;1.70;;;19.50;76.10;;;;;;5099931;28;20024;-63
2022/06/24 12:31:03;;;;;;;8.40;1.52;;;19.50;77.40;;;;;;5099582;28;20024;-63
2022/06/24 12:33:48;;;;;;;7.37;1.63;;;19.50;77.70;;;;;;5099485;28;20027;-63
2022/06/24 12:36:16;;;;;;;7.15;1.75;;;19.40;79.10;;;;;;5100097;28;20262;-63
2022/06/24 12:38:52;;;;;;;5.13;1.33;;;19.30;80.10;;;;;;5099749;28;20016;-63
2022/06/24 12:41:20;;;;;;;5.80;1.63;;;19.10;79.60;;;;;;5099542;28;20074;-63
2022/06/24 12:43:54;;;;;;;6.72;1.42;;;18.80;82.70;;;;;;5099718;28;20111;-63
2022/06/24 12:46:21;;;;;;;;;;;18.60;85.60;;;;;;5100189;28;20040;-63
2022/06/24 12:51:31;;;;;;;12.20;1.92;;;18.30;90.40;;;;;;5099672;28;20156;-63
2022/06/24 12:53:58;;;;;;;12.18;2.05;;;18.20;90.70;;;;;;5099360;28;20032;-62
2022/06/24 12:56:24;;;;;;;10.05;2.55;;;17.90;92.10;;;;;;5099409;28;20024;-61
2022/06/24 12:58:51;;;;;;;7.40;2.08;;;17.90;92.40;;;;;;5098948;28;20153;-61